sensor_id;sensor_type;location;lat;lon;timestamp;P1;durP1;ratioP1;P2;durP2;ratioP2
55423;SDS011;41294;42.666;23.350;2023-07-13T00:01:14;8.77;;;5.53;;
55423;SDS011;41294;42.666;23.350;2023-07-13T00:03:41;7.05;;;5.10;;
55423;SDS011;41294;42.666;23.350;2023-07-13T00:06:07;6.03;;;4.75;;
55423;SDS011;41294;42.666;23.350;2023-07-13T00:08:34;7.70;;;4.70;;
55423;SDS011;41294;42.666;23.350;2023-07-13T00:11:00;7.95;;;5.03;;
55423;SDS011;41294;42.666;23.350;2023-07-13T00:13:26;8.07;;;5.03;;
55423;SDS011;41294;42.666;23.350;2023-07-13T00:15:52;7.55;;;5.22;;
55423;SDS011;41294;42.666;23.350;2023-07-13T00:18:19;7.25;;;5.22;;
55423;SDS011;41294;42.666;23.350;2023-07-13T00:20:45;7.45;;;4.68;;
55423;SDS011;41294;42.666;23.350;2023-07-13T00:23:11;5.25;;;4.60;;
55423;SDS011;41294;42.666;23.350;2023-07-13T00:25:36;9.52;;;5.32;;
55423;SDS011;41294;42.666;23.350;2023-07-13T00:28:02;7.68;;;4.90;;
55423;SDS011;41294;42.666;23.350;2023-07-13T00:30:27;9.35;;;5.40;;
55423;SDS011;41294;42.666;23.350;2023-07-13T00:32:53;8.10;;;5.38;;
55423;SDS011;41294;42.666;23.350;2023-07-13T00:35:18;7.40;;;5.20;;
55423;SDS011;41294;42.666;23.350;2023-07-13T00:37:44;8.52;;;5.15;;
55423;SDS011;41294;42.666;23.350;2023-07-13T00:40:10;7.28;;;4.72;;
55423;SDS011;41294;42.666;23.350;2023-07-13T00:42:38;7.47;;;5.40;;
55423;SDS011;41294;42.666;23.350;2023-07-13T00:47:38;7.13;;;5.18;;
55423;SDS011;41294;42.666;23.350;2023-07-13T00:50:05;8.25;;;5.13;;
55423;SDS011;41294;42.666;23.350;2023-07-13T00:52:36;6.43;;;4.82;;
55423;SDS011;41294;42.666;23.350;2023-07-13T00:55:05;6.57;;;4.93;;
55423;SDS011;41294;42.666;23.350;2023-07-13T00:57:32;7.65;;;5.45;;
55423;SDS011;41294;42.666;23.350;2023-07-13T00:59:58;5.57;;;4.85;;
55423;SDS011;41294;42.666;23.350;2023-07-13T01:02:32;10.65;;;5.07;;
55423;SDS011;41294;42.666;23.350;2023-07-13T01:04:58;5.57;;;5.05;;
55423;SDS011;41294;42.666;23.350;2023-07-13T01:07:24;8.63;;;5.05;;
55423;SDS011;41294;42.666;23.350;2023-07-13T01:09:50;8.27;;;5.13;;
55423;SDS011;41294;42.666;23.350;2023-07-13T01:12:16;7.53;;;5.40;;
55423;SDS011;41294;42.666;23.350;2023-07-13T01:14:41;9.43;;;5.32;;
55423;SDS011;41294;42.666;23.350;2023-07-13T01:17:08;5.70;;;4.95;;
55423;SDS011;41294;42.666;23.350;2023-07-13T01:19:40;9.02;;;5.20;;
55423;SDS011;41294;42.666;23.350;2023-07-13T01:22:11;6.47;;;5.25;;
55423;SDS011;41294;42.666;23.350;2023-07-13T01:24:41;7.72;;;5.13;;
55423;SDS011;41294;42.666;23.350;2023-07-13T01:27:09;5.70;;;4.95;;
55423;SDS011;41294;42.666;23.350;2023-07-13T01:29:37;10.18;;;5.22;;
55423;SDS011;41294;42.666;23.350;2023-07-13T01:32:08;6.60;;;5.57;;
55423;SDS011;41294;42.666;23.350;2023-07-13T01:34:35;7.35;;;5.65;;
55423;SDS011;41294;42.666;23.350;2023-07-13T01:37:02;9.18;;;5.38;;
55423;SDS011;41294;42.666;23.350;2023-07-13T01:39:28;9.63;;;5.10;;
55423;SDS011;41294;42.666;23.350;2023-07-13T01:41:53;9.52;;;5.78;;
55423;SDS011;41294;42.666;23.350;2023-07-13T01:44:19;8.45;;;5.15;;
55423;SDS011;41294;42.666;23.350;2023-07-13T01:46:44;6.30;;;4.72;;
55423;SDS011;41294;42.666;23.350;2023-07-13T01:49:09;6.07;;;5.32;;
55423;SDS011;41294;42.666;23.350;2023-07-13T01:51:35;6.93;;;5.25;;
55423;SDS011;41294;42.666;23.350;2023-07-13T01:54:00;8.85;;;5.30;;
55423;SDS011;41294;42.666;23.350;2023-07-13T01:56:26;6.68;;;5.50;;
55423;SDS011;41294;42.666;23.350;2023-07-13T01:58:51;8.95;;;5.32;;
55423;SDS011;41294;42.666;23.350;2023-07-13T02:01:17;5.95;;;5.35;;
55423;SDS011;41294;42.666;23.350;2023-07-13T02:03:43;7.57;;;5.30;;
55423;SDS011;41294;42.666;23.350;2023-07-13T02:06:08;7.25;;;5.53;;
55423;SDS011;41294;42.666;23.350;2023-07-13T02:08:33;8.57;;;5.35;;
55423;SDS011;41294;42.666;23.350;2023-07-13T02:10:59;6.75;;;5.40;;
55423;SDS011;41294;42.666;23.350;2023-07-13T02:13:25;9.43;;;5.75;;
55423;SDS011;41294;42.666;23.350;2023-07-13T02:15:51;6.75;;;5.43;;
55423;SDS011;41294;42.666;23.350;2023-07-13T02:18:16;6.85;;;5.93;;
55423;SDS011;41294;42.666;23.350;2023-07-13T02:20:42;9.48;;;5.88;;
55423;SDS011;41294;42.666;23.350;2023-07-13T02:23:08;7.45;;;5.80;;
55423;SDS011;41294;42.666;23.350;2023-07-13T02:25:33;8.80;;;5.80;;
55423;SDS011;41294;42.666;23.350;2023-07-13T02:27:59;7.03;;;5.80;;
55423;SDS011;41294;42.666;23.350;2023-07-13T02:30:24;8.50;;;6.32;;
55423;SDS011;41294;42.666;23.350;2023-07-13T02:32:50;7.35;;;6.22;;
55423;SDS011;41294;42.666;23.350;2023-07-13T02:35:15;9.98;;;6.97;;
55423;SDS011;41294;42.666;23.350;2023-07-13T02:37:41;8.27;;;7.05;;
55423;SDS011;41294;42.666;23.350;2023-07-13T02:40:06;7.50;;;6.05;;
55423;SDS011;41294;42.666;23.350;2023-07-13T02:42:34;9.90;;;6.38;;
55423;SDS011;41294;42.666;23.350;2023-07-13T02:44:59;7.32;;;6.07;;
55423;SDS011;41294;42.666;23.350;2023-07-13T02:47:25;8.27;;;6.20;;
55423;SDS011;41294;42.666;23.350;2023-07-13T02:49:51;8.55;;;6.55;;
55423;SDS011;41294;42.666;23.350;2023-07-13T02:52:17;11.13;;;6.95;;
55423;SDS011;41294;42.666;23.350;2023-07-13T02:54:42;9.95;;;6.20;;
55423;SDS011;41294;42.666;23.350;2023-07-13T02:57:08;10.98;;;6.40;;
55423;SDS011;41294;42.666;23.350;2023-07-13T02:59:33;10.35;;;6.10;;
55423;SDS011;41294;42.666;23.350;2023-07-13T03:02:00;6.65;;;5.57;;
55423;SDS011;41294;42.666;23.350;2023-07-13T03:04:26;12.35;;;5.95;;
55423;SDS011;41294;42.666;23.350;2023-07-13T03:06:51;12.25;;;7.45;;
55423;SDS011;41294;42.666;23.350;2023-07-13T03:09:16;10.98;;;6.28;;
55423;SDS011;41294;42.666;23.350;2023-07-13T03:11:42;12.75;;;7.03;;
55423;SDS011;41294;42.666;23.350;2023-07-13T03:14:08;8.07;;;6.55;;
55423;SDS011;41294;42.666;23.350;2023-07-13T03:16:33;10.23;;;6.32;;
55423;SDS011;41294;42.666;23.350;2023-07-13T03:18:59;9.45;;;6.45;;
55423;SDS011;41294;42.666;23.350;2023-07-13T03:21:24;8.13;;;6.45;;
55423;SDS011;41294;42.666;23.350;2023-07-13T03:23:50;9.25;;;6.03;;
55423;SDS011;41294;42.666;23.350;2023-07-13T03:26:16;7.55;;;6.75;;
55423;SDS011;41294;42.666;23.350;2023-07-13T03:28:44;7.57;;;6.38;;
55423;SDS011;41294;42.666;23.350;2023-07-13T03:31:11;7.18;;;6.03;;
55423;SDS011;41294;42.666;23.350;2023-07-13T03:33:39;9.65;;;6.40;;
55423;SDS011;41294;42.666;23.350;2023-07-13T03:36:05;8.43;;;5.90;;
55423;SDS011;41294;42.666;23.350;2023-07-13T03:38:32;7.78;;;5.90;;
55423;SDS011;41294;42.666;23.350;2023-07-13T03:40:58;9.75;;;7.15;;
55423;SDS011;41294;42.666;23.350;2023-07-13T03:43:24;9.15;;;6.90;;
55423;SDS011;41294;42.666;23.350;2023-07-13T03:45:49;7.95;;;6.90;;
55423;SDS011;41294;42.666;23.350;2023-07-13T03:48:15;8.95;;;6.00;;
55423;SDS011;41294;42.666;23.350;2023-07-13T03:50:40;10.52;;;6.63;;
55423;SDS011;41294;42.666;23.350;2023-07-13T03:53:06;10.82;;;6.75;;
55423;SDS011;41294;42.666;23.350;2023-07-13T03:55:31;6.55;;;5.75;;
55423;SDS011;41294;42.666;23.350;2023-07-13T03:57:58;10.68;;;6.80;;
55423;SDS011;41294;42.666;23.350;2023-07-13T04:00:25;10.63;;;6.63;;
55423;SDS011;41294;42.666;23.350;2023-07-13T04:02:50;9.50;;;6.50;;
55423;SDS011;41294;42.666;23.350;2023-07-13T04:05:17;10.52;;;6.53;;
55423;SDS011;41294;42.666;23.350;2023-07-13T04:07:43;11.27;;;6.40;;
55423;SDS011;41294;42.666;23.350;2023-07-13T04:10:09;11.45;;;6.30;;
55423;SDS011;41294;42.666;23.350;2023-07-13T04:12:34;7.10;;;6.25;;
55423;SDS011;41294;42.666;23.350;2023-07-13T04:15:00;7.45;;;5.68;;
55423;SDS011;41294;42.666;23.350;2023-07-13T04:17:25;9.07;;;6.30;;
55423;SDS011;41294;42.666;23.350;2023-07-13T04:19:51;10.82;;;6.18;;
55423;SDS011;41294;42.666;23.350;2023-07-13T04:22:16;6.38;;;5.53;;
55423;SDS011;41294;42.666;23.350;2023-07-13T04:24:42;6.72;;;5.55;;
55423;SDS011;41294;42.666;23.350;2023-07-13T04:27:07;7.05;;;6.35;;
55423;SDS011;41294;42.666;23.350;2023-07-13T04:29:33;8.85;;;6.60;;
55423;SDS011;41294;42.666;23.350;2023-07-13T04:31:58;8.57;;;6.80;;
55423;SDS011;41294;42.666;23.350;2023-07-13T04:34:24;7.53;;;6.18;;
55423;SDS011;41294;42.666;23.350;2023-07-13T04:36:49;10.50;;;6.97;;
55423;SDS011;41294;42.666;23.350;2023-07-13T04:39:15;9.43;;;6.35;;
55423;SDS011;41294;42.666;23.350;2023-07-13T04:41:41;7.57;;;6.88;;
55423;SDS011;41294;42.666;23.350;2023-07-13T04:44:06;8.55;;;7.25;;
55423;SDS011;41294;42.666;23.350;2023-07-13T04:46:32;10.63;;;6.85;;
55423;SDS011;41294;42.666;23.350;2023-07-13T04:48:57;10.00;;;7.03;;
55423;SDS011;41294;42.666;23.350;2023-07-13T04:51:23;10.85;;;7.32;;
55423;SDS011;41294;42.666;23.350;2023-07-13T04:53:49;10.00;;;7.05;;
55423;SDS011;41294;42.666;23.350;2023-07-13T04:56:15;16.25;;;8.23;;
55423;SDS011;41294;42.666;23.350;2023-07-13T04:58:40;9.25;;;7.10;;
55423;SDS011;41294;42.666;23.350;2023-07-13T05:01:06;13.25;;;6.45;;
55423;SDS011;41294;42.666;23.350;2023-07-13T05:03:32;10.30;;;7.40;;
55423;SDS011;41294;42.666;23.350;2023-07-13T05:05:59;9.48;;;6.78;;
55423;SDS011;41294;42.666;23.350;2023-07-13T05:08:31;7.53;;;6.43;;
55423;SDS011;41294;42.666;23.350;2023-07-13T05:10:59;10.60;;;6.95;;
55423;SDS011;41294;42.666;23.350;2023-07-13T05:13:25;12.85;;;7.38;;
55423;SDS011;41294;42.666;23.350;2023-07-13T05:16:04;13.60;;;7.13;;
55423;SDS011;41294;42.666;23.350;2023-07-13T05:18:31;9.77;;;7.07;;
55423;SDS011;41294;42.666;23.350;2023-07-13T05:21:06;9.10;;;7.35;;
55423;SDS011;41294;42.666;23.350;2023-07-13T05:23:34;9.57;;;6.68;;
55423;SDS011;41294;42.666;23.350;2023-07-13T05:26:02;10.60;;;7.57;;
55423;SDS011;41294;42.666;23.350;2023-07-13T05:28:30;7.60;;;6.90;;
55423;SDS011;41294;42.666;23.350;2023-07-13T05:30:57;11.50;;;7.40;;
55423;SDS011;41294;42.666;23.350;2023-07-13T05:33:23;9.02;;;7.80;;
55423;SDS011;41294;42.666;23.350;2023-07-13T05:35:49;10.10;;;7.70;;
55423;SDS011;41294;42.666;23.350;2023-07-13T05:38:15;8.60;;;7.20;;
55423;SDS011;41294;42.666;23.350;2023-07-13T05:40:44;12.10;;;7.53;;
55423;SDS011;41294;42.666;23.350;2023-07-13T05:43:11;9.77;;;7.30;;
55423;SDS011;41294;42.666;23.350;2023-07-13T05:45:37;10.23;;;7.47;;
55423;SDS011;41294;42.666;23.350;2023-07-13T05:48:02;9.23;;;8.05;;
55423;SDS011;41294;42.666;23.350;2023-07-13T05:50:28;8.25;;;7.20;;
55423;SDS011;41294;42.666;23.350;2023-07-13T05:52:53;10.18;;;7.82;;
55423;SDS011;41294;42.666;23.350;2023-07-13T05:55:19;9.02;;;7.57;;
55423;SDS011;41294;42.666;23.350;2023-07-13T05:57:45;10.07;;;7.50;;
55423;SDS011;41294;42.666;23.350;2023-07-13T06:00:11;10.73;;;7.60;;
55423;SDS011;41294;42.666;23.350;2023-07-13T06:02:37;10.52;;;8.15;;
55423;SDS011;41294;42.666;23.350;2023-07-13T06:05:02;10.25;;;7.72;;
55423;SDS011;41294;42.666;23.350;2023-07-13T06:07:27;11.73;;;8.20;;
55423;SDS011;41294;42.666;23.350;2023-07-13T06:09:53;10.38;;;8.23;;
55423;SDS011;41294;42.666;23.350;2023-07-13T06:12:18;12.27;;;8.75;;
55423;SDS011;41294;42.666;23.350;2023-07-13T06:14:44;11.93;;;8.15;;
55423;SDS011;41294;42.666;23.350;2023-07-13T06:17:09;9.32;;;7.30;;
55423;SDS011;41294;42.666;23.350;2023-07-13T06:19:34;10.32;;;7.53;;
55423;SDS011;41294;42.666;23.350;2023-07-13T06:22:00;11.02;;;7.65;;
55423;SDS011;41294;42.666;23.350;2023-07-13T06:24:25;8.93;;;7.43;;
55423;SDS011;41294;42.666;23.350;2023-07-13T06:26:51;10.65;;;7.47;;
55423;SDS011;41294;42.666;23.350;2023-07-13T06:29:16;12.73;;;7.35;;
55423;SDS011;41294;42.666;23.350;2023-07-13T06:31:42;8.73;;;6.95;;
55423;SDS011;41294;42.666;23.350;2023-07-13T06:34:08;8.43;;;7.53;;
55423;SDS011;41294;42.666;23.350;2023-07-13T06:36:33;7.88;;;7.07;;
55423;SDS011;41294;42.666;23.350;2023-07-13T06:38:59;8.68;;;6.60;;
55423;SDS011;41294;42.666;23.350;2023-07-13T06:41:24;9.48;;;6.28;;
55423;SDS011;41294;42.666;23.350;2023-07-13T06:43:51;8.20;;;6.70;;
55423;SDS011;41294;42.666;23.350;2023-07-13T06:46:17;8.73;;;6.40;;
55423;SDS011;41294;42.666;23.350;2023-07-13T06:48:43;8.68;;;6.55;;
55423;SDS011;41294;42.666;23.350;2023-07-13T06:51:08;8.10;;;6.47;;
55423;SDS011;41294;42.666;23.350;2023-07-13T06:53:33;8.63;;;6.72;;
55423;SDS011;41294;42.666;23.350;2023-07-13T06:55:59;10.60;;;7.35;;
55423;SDS011;41294;42.666;23.350;2023-07-13T06:58:24;10.38;;;7.15;;
55423;SDS011;41294;42.666;23.350;2023-07-13T07:00:51;10.38;;;6.32;;
55423;SDS011;41294;42.666;23.350;2023-07-13T07:03:17;6.93;;;6.10;;
55423;SDS011;41294;42.666;23.350;2023-07-13T07:05:43;9.93;;;6.38;;
55423;SDS011;41294;42.666;23.350;2023-07-13T07:08:08;11.20;;;6.53;;
55423;SDS011;41294;42.666;23.350;2023-07-13T07:10:34;12.02;;;7.20;;
55423;SDS011;41294;42.666;23.350;2023-07-13T07:13:00;10.73;;;7.32;;
55423;SDS011;41294;42.666;23.350;2023-07-13T07:15:26;12.80;;;7.20;;
55423;SDS011;41294;42.666;23.350;2023-07-13T07:17:52;8.10;;;6.93;;
55423;SDS011;41294;42.666;23.350;2023-07-13T07:20:17;10.80;;;6.57;;
55423;SDS011;41294;42.666;23.350;2023-07-13T07:22:43;10.93;;;6.78;;
55423;SDS011;41294;42.666;23.350;2023-07-13T07:25:08;9.02;;;6.82;;
55423;SDS011;41294;42.666;23.350;2023-07-13T07:27:34;8.40;;;7.05;;
55423;SDS011;41294;42.666;23.350;2023-07-13T07:29:59;8.40;;;6.30;;
55423;SDS011;41294;42.666;23.350;2023-07-13T07:32:25;7.40;;;6.32;;
55423;SDS011;41294;42.666;23.350;2023-07-13T07:34:50;6.88;;;6.28;;
55423;SDS011;41294;42.666;23.350;2023-07-13T07:37:16;7.75;;;6.95;;
55423;SDS011;41294;42.666;23.350;2023-07-13T07:39:42;8.52;;;6.85;;
55423;SDS011;41294;42.666;23.350;2023-07-13T07:42:08;8.82;;;7.55;;
55423;SDS011;41294;42.666;23.350;2023-07-13T07:44:33;15.63;;;7.13;;
55423;SDS011;41294;42.666;23.350;2023-07-13T07:47:00;11.95;;;7.90;;
55423;SDS011;41294;42.666;23.350;2023-07-13T07:49:26;10.85;;;7.43;;
55423;SDS011;41294;42.666;23.350;2023-07-13T07:51:51;10.10;;;7.60;;
55423;SDS011;41294;42.666;23.350;2023-07-13T07:54:17;11.70;;;7.53;;
55423;SDS011;41294;42.666;23.350;2023-07-13T07:56:42;11.32;;;7.70;;
55423;SDS011;41294;42.666;23.350;2023-07-13T07:59:08;10.95;;;7.45;;
55423;SDS011;41294;42.666;23.350;2023-07-13T08:01:33;11.82;;;7.65;;
55423;SDS011;41294;42.666;23.350;2023-07-13T08:03:59;10.95;;;7.43;;
55423;SDS011;41294;42.666;23.350;2023-07-13T08:06:24;11.15;;;8.07;;
55423;SDS011;41294;42.666;23.350;2023-07-13T08:08:50;11.40;;;7.57;;
55423;SDS011;41294;42.666;23.350;2023-07-13T08:11:16;14.85;;;8.40;;
55423;SDS011;41294;42.666;23.350;2023-07-13T08:13:42;12.32;;;8.25;;
55423;SDS011;41294;42.666;23.350;2023-07-13T08:16:07;12.27;;;8.23;;
55423;SDS011;41294;42.666;23.350;2023-07-13T08:18:33;11.48;;;7.93;;
55423;SDS011;41294;42.666;23.350;2023-07-13T08:21:02;11.75;;;7.93;;
55423;SDS011;41294;42.666;23.350;2023-07-13T08:23:32;9.90;;;7.88;;
55423;SDS011;41294;42.666;23.350;2023-07-13T08:25:58;15.05;;;8.02;;
55423;SDS011;41294;42.666;23.350;2023-07-13T08:28:23;12.73;;;7.68;;
55423;SDS011;41294;42.666;23.350;2023-07-13T08:30:49;13.57;;;7.57;;
55423;SDS011;41294;42.666;23.350;2023-07-13T08:33:16;8.25;;;6.88;;
55423;SDS011;41294;42.666;23.350;2023-07-13T08:35:42;11.20;;;7.35;;
55423;SDS011;41294;42.666;23.350;2023-07-13T08:38:11;9.57;;;6.82;;
55423;SDS011;41294;42.666;23.350;2023-07-13T08:40:36;8.43;;;7.28;;
55423;SDS011;41294;42.666;23.350;2023-07-13T08:43:03;11.82;;;7.30;;
55423;SDS011;41294;42.666;23.350;2023-07-13T08:48:16;10.70;;;6.95;;
55423;SDS011;41294;42.666;23.350;2023-07-13T08:50:51;9.43;;;6.82;;
55423;SDS011;41294;42.666;23.350;2023-07-13T08:53:19;8.73;;;7.13;;
55423;SDS011;41294;42.666;23.350;2023-07-13T08:55:48;11.80;;;7.57;;
55423;SDS011;41294;42.666;23.350;2023-07-13T08:58:22;9.00;;;7.35;;
55423;SDS011;41294;42.666;23.350;2023-07-13T09:03:26;15.52;;;7.15;;
55423;SDS011;41294;42.666;23.350;2023-07-13T09:05:59;10.10;;;7.40;;
55423;SDS011;41294;42.666;23.350;2023-07-13T09:13:47;8.60;;;7.47;;
55423;SDS011;41294;42.666;23.350;2023-07-13T09:16:19;8.30;;;7.10;;
55423;SDS011;41294;42.666;23.350;2023-07-13T09:18:49;13.68;;;7.57;;
55423;SDS011;41294;42.666;23.350;2023-07-13T09:21:17;10.93;;;7.22;;
55423;SDS011;41294;42.666;23.350;2023-07-13T09:24:46;11.93;;;7.40;;
55423;SDS011;41294;42.666;23.350;2023-07-13T09:27:26;10.32;;;7.57;;
55423;SDS011;41294;42.666;23.350;2023-07-13T09:30:22;9.60;;;7.70;;
55423;SDS011;41294;42.666;23.350;2023-07-13T09:33:03;12.07;;;8.13;;
55423;SDS011;41294;42.666;23.350;2023-07-13T09:35:29;12.45;;;7.85;;
55423;SDS011;41294;42.666;23.350;2023-07-13T09:37:59;9.98;;;7.15;;
55423;SDS011;41294;42.666;23.350;2023-07-13T09:40:40;7.95;;;7.15;;
55423;SDS011;41294;42.666;23.350;2023-07-13T09:43:13;11.18;;;8.15;;
55423;SDS011;41294;42.666;23.350;2023-07-13T09:45:40;9.35;;;7.60;;
55423;SDS011;41294;42.666;23.350;2023-07-13T09:48:06;9.07;;;7.03;;
55423;SDS011;41294;42.666;23.350;2023-07-13T09:50:36;8.50;;;7.28;;
55423;SDS011;41294;42.666;23.350;2023-07-13T09:53:02;11.82;;;7.40;;
55423;SDS011;41294;42.666;23.350;2023-07-13T09:55:34;10.85;;;7.38;;
55423;SDS011;41294;42.666;23.350;2023-07-13T09:58:13;9.70;;;7.53;;
55423;SDS011;41294;42.666;23.350;2023-07-13T10:00:58;9.13;;;7.70;;
55423;SDS011;41294;42.666;23.350;2023-07-13T10:03:29;9.63;;;7.30;;
55423;SDS011;41294;42.666;23.350;2023-07-13T10:06:19;9.85;;;7.38;;
55423;SDS011;41294;42.666;23.350;2023-07-13T10:08:51;9.95;;;7.32;;
55423;SDS011;41294;42.666;23.350;2023-07-13T10:13:59;9.23;;;7.18;;
55423;SDS011;41294;42.666;23.350;2023-07-13T10:16:31;9.32;;;7.13;;
55423;SDS011;41294;42.666;23.350;2023-07-13T10:19:00;13.40;;;7.80;;
55423;SDS011;41294;42.666;23.350;2023-07-13T10:21:37;9.02;;;6.88;;
55423;SDS011;41294;42.666;23.350;2023-07-13T10:24:12;11.95;;;7.50;;
55423;SDS011;41294;42.666;23.350;2023-07-13T10:29:44;10.73;;;7.60;;
55423;SDS011;41294;42.666;23.350;2023-07-13T10:32:13;10.98;;;7.60;;
55423;SDS011;41294;42.666;23.350;2023-07-13T10:34:43;9.57;;;7.03;;
55423;SDS011;41294;42.666;23.350;2023-07-13T10:37:27;9.20;;;6.85;;
55423;SDS011;41294;42.666;23.350;2023-07-13T10:39:59;9.57;;;6.60;;
55423;SDS011;41294;42.666;23.350;2023-07-13T10:42:30;5.38;;;4.82;;
55423;SDS011;41294;42.666;23.350;2023-07-13T10:45:00;9.00;;;4.78;;
55423;SDS011;41294;42.666;23.350;2023-07-13T10:47:26;6.03;;;4.50;;
55423;SDS011;41294;42.666;23.350;2023-07-13T10:49:52;6.78;;;5.10;;
55423;SDS011;41294;42.666;23.350;2023-07-13T10:57:59;7.28;;;5.10;;
55423;SDS011;41294;42.666;23.350;2023-07-13T11:00:31;6.15;;;4.55;;
55423;SDS011;41294;42.666;23.350;2023-07-13T11:02:59;8.90;;;4.68;;
55423;SDS011;41294;42.666;23.350;2023-07-13T11:05:29;8.15;;;4.53;;
55423;SDS011;41294;42.666;23.350;2023-07-13T11:08:13;8.73;;;4.63;;
55423;SDS011;41294;42.666;23.350;2023-07-13T11:10:56;9.38;;;4.80;;
55423;SDS011;41294;42.666;23.350;2023-07-13T11:16:14;5.40;;;4.35;;
55423;SDS011;41294;42.666;23.350;2023-07-13T11:21:27;8.02;;;4.88;;
55423;SDS011;41294;42.666;23.350;2023-07-13T11:24:14;7.20;;;4.50;;
55423;SDS011;41294;42.666;23.350;2023-07-13T11:29:32;5.78;;;4.68;;
55423;SDS011;41294;42.666;23.350;2023-07-13T11:32:20;6.55;;;4.90;;
55423;SDS011;41294;42.666;23.350;2023-07-13T11:34:48;5.38;;;4.55;;
55423;SDS011;41294;42.666;23.350;2023-07-13T11:37:15;6.57;;;5.20;;
55423;SDS011;41294;42.666;23.350;2023-07-13T11:39:43;8.40;;;4.95;;
55423;SDS011;41294;42.666;23.350;2023-07-13T11:42:11;7.95;;;4.97;;
55423;SDS011;41294;42.666;23.350;2023-07-13T11:44:43;5.13;;;4.63;;
55423;SDS011;41294;42.666;23.350;2023-07-13T11:47:14;10.60;;;5.03;;
55423;SDS011;41294;42.666;23.350;2023-07-13T11:49:48;5.47;;;4.85;;
55423;SDS011;41294;42.666;23.350;2023-07-13T11:52:15;8.55;;;5.20;;
55423;SDS011;41294;42.666;23.350;2023-07-13T11:54:51;8.70;;;5.43;;
55423;SDS011;41294;42.666;23.350;2023-07-13T11:57:26;6.90;;;5.30;;
55423;SDS011;41294;42.666;23.350;2023-07-13T11:59:56;6.45;;;4.45;;
55423;SDS011;41294;42.666;23.350;2023-07-13T12:02:28;5.63;;;4.80;;
55423;SDS011;41294;42.666;23.350;2023-07-13T12:04:57;6.65;;;4.63;;
55423;SDS011;41294;42.666;23.350;2023-07-13T12:07:24;9.52;;;5.57;;
55423;SDS011;41294;42.666;23.350;2023-07-13T12:10:02;10.55;;;5.30;;
55423;SDS011;41294;42.666;23.350;2023-07-13T12:12:52;10.70;;;5.50;;
55423;SDS011;41294;42.666;23.350;2023-07-13T12:15:23;9.45;;;4.85;;
55423;SDS011;41294;42.666;23.350;2023-07-13T12:17:56;8.98;;;5.38;;
55423;SDS011;41294;42.666;23.350;2023-07-13T12:20:25;5.53;;;4.40;;
55423;SDS011;41294;42.666;23.350;2023-07-13T12:22:58;5.82;;;5.03;;
55423;SDS011;41294;42.666;23.350;2023-07-13T12:25:24;6.72;;;4.88;;
55423;SDS011;41294;42.666;23.350;2023-07-13T12:27:50;8.82;;;5.22;;
55423;SDS011;41294;42.666;23.350;2023-07-13T12:33:11;8.00;;;4.80;;
55423;SDS011;41294;42.666;23.350;2023-07-13T12:35:44;7.22;;;4.70;;
55423;SDS011;41294;42.666;23.350;2023-07-13T12:38:15;7.50;;;4.55;;
55423;SDS011;41294;42.666;23.350;2023-07-13T12:40:41;8.10;;;4.90;;
55423;SDS011;41294;42.666;23.350;2023-07-13T12:43:13;8.00;;;4.93;;
55423;SDS011;41294;42.666;23.350;2023-07-13T12:45:54;7.47;;;5.22;;
55423;SDS011;41294;42.666;23.350;2023-07-13T12:48:21;6.18;;;4.55;;
55423;SDS011;41294;42.666;23.350;2023-07-13T12:50:47;8.25;;;5.45;;
55423;SDS011;41294;42.666;23.350;2023-07-13T12:53:17;8.82;;;5.50;;
55423;SDS011;41294;42.666;23.350;2023-07-13T12:55:47;7.82;;;5.30;;
55423;SDS011;41294;42.666;23.350;2023-07-13T12:58:20;8.98;;;5.88;;
55423;SDS011;41294;42.666;23.350;2023-07-13T13:00:51;9.55;;;6.20;;
55423;SDS011;41294;42.666;23.350;2023-07-13T13:05:45;10.40;;;6.65;;
55423;SDS011;41294;42.666;23.350;2023-07-13T13:08:11;8.93;;;6.53;;
55423;SDS011;41294;42.666;23.350;2023-07-13T13:10:36;10.75;;;6.25;;
55423;SDS011;41294;42.666;23.350;2023-07-13T13:13:02;9.45;;;5.88;;
55423;SDS011;41294;42.666;23.350;2023-07-13T13:15:28;11.00;;;5.97;;
55423;SDS011;41294;42.666;23.350;2023-07-13T13:17:55;10.95;;;6.13;;
55423;SDS011;41294;42.666;23.350;2023-07-13T13:20:21;11.07;;;6.25;;
55423;SDS011;41294;42.666;23.350;2023-07-13T13:22:47;7.53;;;5.85;;
55423;SDS011;41294;42.666;23.350;2023-07-13T13:25:13;10.38;;;5.85;;
55423;SDS011;41294;42.666;23.350;2023-07-13T13:27:43;9.77;;;6.38;;
55423;SDS011;41294;42.666;23.350;2023-07-13T13:32:38;10.65;;;6.05;;
55423;SDS011;41294;42.666;23.350;2023-07-13T13:35:04;8.80;;;5.90;;
55423;SDS011;41294;42.666;23.350;2023-07-13T13:37:32;10.02;;;5.93;;
55423;SDS011;41294;42.666;23.350;2023-07-13T13:39:57;10.02;;;5.97;;
55423;SDS011;41294;42.666;23.350;2023-07-13T13:42:23;9.98;;;6.05;;
55423;SDS011;41294;42.666;23.350;2023-07-13T13:44:50;10.15;;;6.25;;
55423;SDS011;41294;42.666;23.350;2023-07-13T13:47:33;9.88;;;6.03;;
55423;SDS011;41294;42.666;23.350;2023-07-13T13:50:01;9.38;;;6.07;;
55423;SDS011;41294;42.666;23.350;2023-07-13T13:52:27;12.95;;;6.22;;
55423;SDS011;41294;42.666;23.350;2023-07-13T13:54:52;9.88;;;6.05;;
55423;SDS011;41294;42.666;23.350;2023-07-13T13:57:24;10.38;;;6.20;;
55423;SDS011;41294;42.666;23.350;2023-07-13T13:59:50;9.05;;;6.00;;
55423;SDS011;41294;42.666;23.350;2023-07-13T14:02:24;7.07;;;5.57;;
55423;SDS011;41294;42.666;23.350;2023-07-13T14:04:54;12.00;;;6.00;;
55423;SDS011;41294;42.666;23.350;2023-07-13T14:07:22;9.68;;;5.88;;
55423;SDS011;41294;42.666;23.350;2023-07-13T14:09:49;9.50;;;5.93;;
55423;SDS011;41294;42.666;23.350;2023-07-13T14:12:14;9.82;;;5.68;;
55423;SDS011;41294;42.666;23.350;2023-07-13T14:14:39;7.10;;;5.28;;
55423;SDS011;41294;42.666;23.350;2023-07-13T14:17:09;9.15;;;5.65;;
55423;SDS011;41294;42.666;23.350;2023-07-13T14:19:49;13.27;;;6.22;;
55423;SDS011;41294;42.666;23.350;2023-07-13T14:22:16;6.28;;;4.95;;
55423;SDS011;41294;42.666;23.350;2023-07-13T14:24:43;8.52;;;5.30;;
55423;SDS011;41294;42.666;23.350;2023-07-13T14:27:09;8.35;;;5.03;;
55423;SDS011;41294;42.666;23.350;2023-07-13T14:29:36;10.15;;;5.55;;
55423;SDS011;41294;42.666;23.350;2023-07-13T14:32:01;12.50;;;5.50;;
55423;SDS011;41294;42.666;23.350;2023-07-13T14:34:27;7.25;;;4.65;;
55423;SDS011;41294;42.666;23.350;2023-07-13T14:36:53;8.50;;;4.75;;
55423;SDS011;41294;42.666;23.350;2023-07-13T14:39:22;9.90;;;5.25;;
55423;SDS011;41294;42.666;23.350;2023-07-13T14:41:53;11.10;;;5.05;;
55423;SDS011;41294;42.666;23.350;2023-07-13T14:44:29;9.85;;;5.20;;
55423;SDS011;41294;42.666;23.350;2023-07-13T14:46:59;6.72;;;5.18;;
55423;SDS011;41294;42.666;23.350;2023-07-13T14:49:39;9.90;;;5.30;;
55423;SDS011;41294;42.666;23.350;2023-07-13T14:54:42;10.10;;;5.40;;
55423;SDS011;41294;42.666;23.350;2023-07-13T14:57:13;10.70;;;5.45;;
55423;SDS011;41294;42.666;23.350;2023-07-13T14:59:40;9.13;;;4.70;;
55423;SDS011;41294;42.666;23.350;2023-07-13T15:02:31;8.15;;;4.68;;
55423;SDS011;41294;42.666;23.350;2023-07-13T15:04:56;11.07;;;5.15;;
55423;SDS011;41294;42.666;23.350;2023-07-13T15:07:22;8.52;;;4.45;;
55423;SDS011;41294;42.666;23.350;2023-07-13T15:09:48;9.68;;;5.13;;
55423;SDS011;41294;42.666;23.350;2023-07-13T15:12:14;11.65;;;5.20;;
55423;SDS011;41294;42.666;23.350;2023-07-13T15:14:39;10.63;;;4.88;;
55423;SDS011;41294;42.666;23.350;2023-07-13T15:17:05;6.32;;;4.63;;
55423;SDS011;41294;42.666;23.350;2023-07-13T15:19:31;10.85;;;5.55;;